Date,TemperatureHighF,TemperatureAvgF,TemperatureLowF,DewpointHighF,DewpointAvgF,DewpointLowF,HumidityHigh,HumidityAvg,HumidityLow,PressureMaxIn,PressureMinIn,WindSpeedMaxMPH,WindSpeedAvgMPH,GustSpeedMaxMPH,PrecipitationSumIn
2013-1-1,104.9,84.0,68.9,72.1,64.5,56.6,75,55,22,29.88,29.72,20,5,20,0.00
2013-1-2,86.7,75.7,69.1,65.8,63.0,58.6,85,66,47,30.06,29.73,20,10,20,0.00
2013-1-3,85.8,74.5,68.0,64.3,59.8,56.2,73,61,46,30.07,29.98,16,7,16,0.00
2013-1-4,96.1,78.2,61.0,67.8,61.8,55.1,86,60,39,30.02,29.90,18,5,18,0.00
2013-1-5,102.4,81.4,62.4,70.3,63.3,56.5,83,58,26,30.03,29.91,16,4,16,0.00
2013-1-6,96.1,79.6,64.9,69.5,64.4,58.6,85,62,40,30.18,30.01,20,6,20,0.00
2013-1-7,93.9,79.1,70.9,70.8,65.5,61.6,79,64,44,30.18,29.93,17,5,17,0.00
2013-1-8,108.7,89.5,68.2,62.9,57.8,47.5,78,41,18,29.92,29.40,24,9,24,0.00
2013-1-9,90.1,79.1,70.9,63.4,57.1,49.0,62,49,25,29.73,29.31,24,11,24,0.00
2013-1-10,80.6,73.7,70.2,62.8,59.5,56.9,72,61,53,29.85,29.71,20,7,20,0.00
2013-1-11,102.7,83.7,64.6,73.0,66.1,58.3,83,59,35,29.85,29.65,19,4,19,0.00
2013-1-12,115.7,88.0,73.8,71.3,65.3,57.2,73,51,16,29.90,29.65,34,8,35,0.00
2013-1-13,90.3,76.9,67.8,71.6,66.1,62.5,86,70,53,29.89,29.67,20,7,20,0.24
2013-1-14,79.9,70.1,64.9,63.6,58.7,54.2,87,69,43,30.12,29.82,23,11,23,0.24
2013-1-15,85.8,73.0,62.2,65.1,59.6,56.0,81,64,46,30.12,29.96,18,5,18,0.06
2013-1-16,96.1,78.1,59.7,69.2,61.7,53.5,85,60,36,29.97,29.82,14,4,14,0.00
2013-1-17,98.2,83.6,71.6,73.9,69.0,64.3,84,64,43,29.90,29.68,16,6,16,0.00
2013-1-18,117.3,89.0,70.9,75.1,66.4,60.1,84,55,17,29.74,29.47,25,6,25,0.14
2013-1-19,85.8,75.2,67.8,67.3,62.6,58.3,80,65,50,29.99,29.74,25,10,25,0.08
2013-1-20,73.6,69.7,66.9,68.1,65.2,62.1,88,86,82,30.03,29.94,10,2,10,0.53
2013-1-21,89.1,75.7,68.2,70.8,67.0,64.8,89,76,51,29.99,29.87,15,3,15,0.53
2013-1-22,103.3,78.8,64.0,73.6,66.7,59.8,90,69,39,29.86,29.72,17,3,17,0.10
2013-1-23,80.1,72.8,69.8,68.0,65.6,63.7,87,78,65,30.02,29.84,22,10,22,0.10
2013-1-24,86.7,75.3,67.8,71.7,67.3,63.2,86,77,60,30.03,29.91,18,6,20,0.04
2013-1-25,96.4,80.3,67.6,74.7,69.4,63.5,90,71,47,29.94,29.77,18,5,18,0.04
2013-1-26,91.0,80.0,70.5,75.6,69.8,65.8,87,72,52,29.88,29.78,20,6,20,0.08
2013-1-27,75.7,73.1,71.2,71.3,68.5,67.2,90,86,79,29.81,29.74,13,3,13,1.41
2013-1-28,72.0,70.5,68.2,69.0,67.8,65.8,93,91,90,29.79,29.59,27,6,27,4.10
2013-1-29,86.7,74.7,68.9,74.0,68.2,63.0,94,81,60,29.82,29.50,24,5,24,4.51
2013-1-30,90.5,75.4,69.3,72.3,66.5,63.9,86,75,53,29.97,29.83,16,4,16,0.00
2013-1-31,98.2,81.1,71.2,74.6,69.5,66.0,85,70,45,29.96,29.69,57,4,57,0.00
2013-2-1,88.5,72.5,64.9,73.2,66.1,60.8,89,81,50,29.73,29.62,24,7,24,1.23
2013-2-2,70.5,63.3,60.4,62.0,57.5,52.6,89,82,65,29.92,29.66,29,11,29,0.34
2013-2-3,81.7,68.7,59.5,59.7,55.5,51.4,75,64,46,30.05,29.85,25,11,25,0.34
2013-2-4,87.6,72.4,62.4,65.0,60.6,57.2,85,68,43,30.22,30.03,21,7,21,0.00
2013-2-5,89.8,73.2,60.4,67.0,61.0,55.1,87,68,44,30.22,30.15,18,4,18,0.00
2013-2-6,89.8,75.1,61.7,66.3,60.6,57.0,87,64,38,30.17,30.03,18,4,18,0.00
2013-2-7,91.9,69.7,57.9,64.9,57.9,52.3,86,68,41,30.07,29.96,18,4,18,0.00
2013-2-8,99.9,78.2,58.8,70.3,62.1,53.0,86,61,35,30.06,29.96,15,4,15,0.00
2013-2-9,103.3,80.0,63.5,70.5,65.0,57.6,85,63,32,30.03,29.86,15,3,15,0.00
2013-2-10,102.0,78.7,70.0,75.9,67.7,64.7,86,71,42,30.11,29.88,26,7,26,0.30
2013-2-11,72.0,69.4,67.6,65.8,64.5,62.6,89,84,79,30.10,30.01,20,7,20,0.02
2013-2-12,75.2,70.8,67.6,67.3,64.4,60.8,92,81,68,30.17,30.02,16,5,16,1.15
2013-2-13,76.6,71.1,66.4,63.6,61.0,57.9,87,72,54,30.22,30.13,15,3,15,0.02
2013-2-14,78.6,71.2,62.2,64.7,60.2,55.5,81,69,53,30.18,30.08,16,4,16,0.02
2013-2-15,77.2,71.9,67.6,65.1,63.1,60.7,83,74,59,30.16,30.08,17,4,17,0.02
2013-2-16,78.6,72.1,65.1,65.3,62.0,59.1,84,71,57,30.16,30.08,16,4,16,0.20
2013-2-17,76.5,70.6,64.8,64.9,61.7,59.3,88,74,57,30.15,30.08,18,4,18,0.41
2013-2-18,77.9,71.1,64.2,67.2,62.6,58.6,85,75,58,30.11,29.99,17,4,17,0.10
2013-2-19,80.6,73.0,64.9,68.4,64.5,59.7,86,75,60,30.01,29.90,17,4,17,0.02
2013-2-20,80.2,73.7,68.2,69.0,65.6,62.6,88,76,62,30.04,29.92,18,5,18,0.06
2013-2-21,79.5,73.1,67.8,68.6,65.9,63.1,88,78,65,30.05,29.98,26,6,26,0.28
2013-2-22,76.1,71.0,66.7,67.2,64.3,61.4,88,80,70,30.03,29.96,26,9,26,0.55
2013-2-23,74.8,70.8,67.6,71.3,67.9,63.8,93,91,87,29.95,29.69,31,14,31,1.91
2013-2-24,86.7,77.3,70.0,74.7,70.8,67.2,93,81,61,29.95,29.77,17,6,17,1.91
2013-2-25,84.7,78.0,71.4,72.9,69.9,66.3,86,77,65,30.05,29.93,17,4,18,0.00
2013-2-26,81.3,76.6,72.5,70.1,67.5,64.5,82,74,65,30.06,29.96,20,6,20,0.00
2013-2-27,85.8,76.7,70.2,68.6,65.2,62.6,81,69,50,30.01,29.83,19,5,19,0.00
2013-2-28,86.7,75.3,66.2,68.9,65.6,61.9,87,73,53,29.86,29.71,22,6,22,0.81
2013-3-1,67.3,65.4,63.5,64.6,62.3,60.1,92,90,87,30.01,29.76,26,15,26,2.14
2013-3-2,66.4,64.3,62.4,63.7,61.3,59.1,92,90,87,30.12,30.00,26,12,26,1.03
2013-3-3,75.0,70.2,65.8,65.1,63.5,43.8,91,80,68,30.13,30.05,21,9,21,1.07
2013-3-4,75.6,71.0,65.5,63.4,62.1,59.8,85,74,63,30.16,30.08,20,7,20,0.04
2013-3-5,77.9,72.6,65.7,64.6,62.3,60.2,85,71,57,30.15,30.08,21,6,21,0.06
2013-3-6,79.3,74.0,69.6,65.4,63.5,61.6,81,70,55,30.13,30.03,18,4,18,0.02
2013-3-7,79.7,72.3,63.5,64.8,61.6,57.2,86,70,56,30.12,30.02,16,4,17,0.02
2013-3-8,78.1,71.2,63.0,65.3,61.7,56.9,85,72,58,30.17,30.09,15,4,15,0.00
2013-3-9,79.3,73.5,69.1,66.4,64.0,60.1,83,73,53,30.16,30.06,17,4,17,0.00
2013-3-10,79.0,72.2,64.6,64.5,62.3,58.6,84,72,59,30.11,30.02,15,3,15,0.02
2013-3-11,78.4,70.6,66.0,73.6,62.7,60.0,85,77,59,30.14,30.04,15,2,15,0.02
2013-3-12,77.7,71.4,64.9,65.0,62.2,59.3,86,73,59,30.13,30.01,15,3,15,0.02
2013-3-13,79.5,71.5,62.3,65.4,61.3,56.4,87,71,53,30.03,29.82,8,2,14,0.02
2013-3-14,79.5,71.5,63.7,67.2,62.5,58.1,84,74,55,29.94,29.78,9,2,15,0.02
2013-3-15,73.1,71.1,69.6,68.2,66.3,64.6,88,85,82,30.03,29.91,9,4,16,0.10
2013-3-16,84.2,73.9,66.0,69.2,66.3,61.7,89,78,58,30.00,29.74,9,1,14,0.10
2013-3-17,72.7,70.4,66.0,66.5,57.4,50.2,84,64,46,30.08,29.74,18,8,28,0.00
2013-3-18,72.3,65.7,58.8,57.7,55.3,51.6,84,70,54,30.19,30.05,13,4,18,0.08
2013-3-19,73.2,65.1,56.7,59.6,55.5,50.6,85,72,55,30.27,30.15,8,2,14,0.00
2013-3-20,74.8,67.2,58.3,62.3,58.4,52.6,86,74,60,30.26,30.14,12,2,18,0.00
2013-3-21,80.6,70.6,60.6,65.0,59.5,54.3,83,69,47,30.17,29.92,7,2,13,0.00
2013-3-22,87.1,77.9,70.0,67.0,64.2,61.7,76,64,49,29.97,29.89,15,5,21,0.00
2013-3-23,87.4,79.2,74.1,67.9,64.0,60.4,75,60,48,30.01,29.90,8,2,16,0.00
2013-3-24,87.6,77.6,69.3,70.0,65.5,55.8,86,69,36,30.00,29.83,8,2,13,0.02
2013-3-25,81.0,74.3,67.1,67.9,64.4,59.1,80,72,57,30.08,29.93,9,2,14,0.00
2013-3-26,83.3,76.1,71.4,70.5,67.7,65.6,86,76,60,30.10,29.98,7,1,12,0.00
2013-3-27,85.9,75.5,66.4,70.2,65.8,60.4,86,73,52,30.08,29.97,9,2,16,0.00
2013-3-28,87.6,77.4,68.2,70.2,65.2,62.3,84,68,46,30.03,29.87,8,2,20,0.08
2013-3-29,74.5,68.6,64.0,68.3,55.9,49.6,83,64,56,30.09,29.90,12,5,20,0.34
2013-3-30,73.2,66.0,57.4,59.7,55.9,50.9,81,70,59,30.07,29.86,7,1,13,0.00
2013-3-31,75.4,69.0,64.6,60.2,57.9,53.8,81,69,48,29.99,29.77,8,2,15,0.00
2013-4-1,73.9,68.3,62.8,62.4,60.2,57.4,84,76,60,30.05,29.96,9,2,15,0.02
2013-4-2,76.1,67.5,59.5,59.9,57.1,54.0,86,71,48,30.02,29.91,8,1,13,0.02
2013-4-3,66.0,64.4,63.0,62.3,60.0,57.6,90,86,77,30.22,30.00,13,2,20,1.99
2013-4-4,67.6,63.7,61.0,62.6,59.8,57.3,91,87,77,30.38,30.22,7,1,13,0.51
2013-4-5,72.1,66.2,61.5,61.7,58.4,55.6,89,77,59,30.40,30.33,8,2,15,0.53
2013-4-6,70.9,65.6,61.0,61.0,58.9,56.4,87,79,67,30.36,30.22,7,1,12,0.00
2013-4-7,70.3,63.6,56.7,61.5,56.9,51.6,89,79,66,30.24,30.14,6,1,13,0.00
2013-4-8,72.0,64.3,55.6,60.6,56.4,50.3,88,76,62,30.27,30.18,8,2,12,0.04
2013-4-9,70.3,63.4,58.3,62.8,58.6,53.1,89,84,74,30.29,30.20,16,1,23,1.22
2013-4-10,71.2,64.5,57.0,61.2,57.9,52.9,91,80,67,30.25,30.14,8,1,12,1.28
2013-4-11,73.9,64.7,54.7,60.4,56.2,49.6,89,75,55,30.23,30.13,7,1,11,0.00
2013-4-12,73.9,66.8,58.8,62.6,58.2,53.4,88,74,59,30.28,30.17,8,2,16,0.00
2013-4-13,75.0,66.5,57.0,62.8,58.2,51.2,88,75,63,30.17,29.98,8,2,15,0.00
2013-4-14,76.8,67.6,58.1,63.5,58.6,52.5,88,74,52,29.96,29.84,5,1,9,0.00
2013-4-15,79.5,69.0,59.4,63.9,58.7,53.9,86,71,54,29.84,29.72,8,1,13,0.00
2013-4-16,67.8,66.1,64.6,60.9,60.1,59.6,84,81,76,29.96,29.90,6,2,11,0.02
2013-4-17,71.7,65.4,58.6,61.1,58.4,53.8,87,78,66,29.99,29.91,10,2,14,0.02
2013-4-18,73.9,66.0,58.8,61.6,58.2,53.8,88,77,60,29.94,29.85,8,2,12,0.02
2013-4-19,67.4,62.5,59.5,56.5,49.3,42.4,83,63,48,29.94,29.85,16,5,22,0.00
2013-4-20,60.6,58.6,57.6,57.4,52.3,40.9,90,80,51,29.97,29.81,10,4,18,2.20
2013-4-21,64.7,59.1,53.2,54.7,51.9,48.2,85,77,65,29.98,29.87,8,2,15,0.02
2013-4-22,72.5,62.7,57.0,55.8,53.7,52.2,88,74,51,29.86,29.73,6,1,12,0.02
2013-4-23,71.8,61.6,51.3,54.9,50.3,45.1,81,68,48,29.99,29.83,8,1,12,0.02
2013-4-24,70.0,60.5,51.8,53.6,49.8,45.7,84,69,45,30.08,29.97,5,1,13,0.00
2013-4-25,68.9,59.8,52.0,53.1,49.5,46.2,84,70,48,30.17,30.06,6,1,10,0.00
2013-4-26,72.3,62.0,52.9,54.6,49.2,43.7,78,64,47,30.21,30.09,6,1,12,0.00
2013-4-27,73.3,62.1,52.0,58.0,51.9,45.7,83,70,49,30.17,30.04,5,1,10,0.00
2013-4-28,77.4,66.6,58.6,54.7,50.9,46.0,82,58,38,30.10,30.01,6,2,12,0.02
2013-4-29,76.3,66.1,56.3,66.9,53.5,46.0,85,65,43,30.21,30.07,7,1,12,0.00
2013-4-30,72.7,68.4,64.6,65.1,63.0,60.6,89,83,75,30.26,30.16,9,2,15,0.00
2013-5-1,78.6,69.2,63.0,62.4,60.2,56.7,89,74,48,30.14,29.91,13,2,18,0.00
2013-5-2,67.3,63.3,59.5,59.8,51.0,48.2,77,65,54,30.32,30.05,15,7,23,0.00
2013-5-3,68.4,59.6,51.6,53.7,50.0,45.3,83,71,55,30.31,30.11,7,1,11,0.02
2013-5-4,71.7,63.8,58.5,56.8,49.3,46.1,73,60,46,30.21,29.98,16,4,22,0.00
2013-5-5,64.9,61.3,56.8,50.5,48.0,46.2,69,62,56,30.24,30.15,12,4,18,0.00
2013-5-6,65.3,58.8,52.3,54.9,50.4,45.7,81,74,64,30.30,30.20,10,3,17,0.02
2013-5-7,66.7,60.8,55.6,57.5,54.5,50.2,88,80,68,30.38,30.26,6,1,14,0.00
2013-5-8,67.3,60.7,53.8,59.3,54.2,48.1,89,80,66,30.42,30.33,6,1,13,0.02
2013-5-9,68.9,59.9,51.6,57.0,51.7,46.0,88,75,58,30.41,30.33,3,0,7,0.00
2013-5-10,68.9,58.9,48.7,56.4,50.8,42.5,87,75,58,30.42,30.33,6,1,9,0.00
2013-5-11,68.5,62.5,56.8,61.8,56.8,51.8,89,82,74,30.40,30.31,7,1,15,0.00
2013-5-12,68.7,60.8,52.5,59.3,54.2,47.4,89,79,69,30.33,30.17,7,1,14,0.00
2013-5-13,67.3,61.1,54.7,57.6,54.6,50.5,88,80,65,30.15,29.92,8,2,29,0.00
2013-5-14,64.2,61.4,56.3,58.5,56.5,50.9,88,84,79,29.92,29.83,7,1,29,0.08
2013-5-15,64.6,56.6,48.0,47.8,44.9,41.5,82,66,51,29.95,29.82,8,2,16,0.08
2013-5-16,68.4,61.8,57.0,49.9,46.3,44.3,64,57,46,29.87,29.75,9,2,18,0.00
2013-5-17,64.8,58.5,53.2,47.2,43.4,38.7,74,59,40,29.93,29.82,10,3,20,0.00
2013-5-18,63.7,56.6,50.7,44.9,41.3,39.0,67,57,44,29.97,29.86,7,2,12,0.02
2013-5-19,62.2,55.8,48.9,41.4,39.9,38.4,70,56,44,30.02,29.95,7,2,17,0.00
2013-5-20,64.0,55.1,49.1,47.1,41.6,37.1,72,61,48,30.07,29.96,10,2,15,0.00
2013-5-21,68.4,59.3,52.7,47.7,44.5,41.5,71,59,45,30.01,29.88,8,2,17,0.00
2013-5-22,60.6,55.7,50.5,53.5,48.4,42.9,85,77,70,29.96,29.77,5,0,29,0.16
2013-5-23,61.5,55.8,53.1,55.3,52.2,49.6,91,88,77,29.95,29.76,12,3,20,1.01
2013-5-24,64.9,60.3,55.6,54.9,52.5,49.2,89,76,60,30.09,29.94,14,7,29,0.10
2013-5-25,64.5,58.4,53.8,54.8,52.0,47.8,87,79,68,30.23,30.09,10,2,17,0.20
2013-5-26,63.1,53.9,45.3,50.3,45.7,39.8,85,74,59,30.27,30.18,5,0,9,0.00
2013-5-27,58.8,51.8,44.4,56.0,48.0,39.0,92,87,79,30.41,30.23,3,0,29,0.22
2013-5-28,63.5,57.9,53.2,59.0,54.2,50.1,93,88,79,30.49,30.39,3,0,14,0.06
2013-5-29,65.8,58.9,54.1,56.9,53.6,50.3,91,83,71,30.44,30.34,5,1,9,0.06
2013-5-30,66.4,56.8,48.5,55.0,50.2,43.8,90,79,63,30.39,30.28,7,1,11,0.02
2013-5-31,68.2,58.9,49.8,56.9,52.1,45.2,88,79,65,30.34,30.22,6,1,11,0.02
2013-6-1,66.9,60.0,54.7,58.4,54.0,50.1,88,81,68,30.20,29.93,5,1,29,0.12
2013-6-2,60.6,57.0,53.4,57.3,53.0,47.1,90,86,75,29.97,29.65,15,4,25,0.71
2013-6-3,61.3,55.5,50.4,48.4,45.3,42.3,82,69,59,30.15,29.97,14,4,40,0.77
2013-6-4,62.4,53.7,45.0,52.6,47.0,39.3,87,78,68,30.28,30.18,6,1,29,0.00
2013-6-5,63.0,54.4,47.3,54.4,48.9,42.7,89,82,73,30.28,30.17,6,1,14,0.00
2013-6-6,62.4,58.3,54.6,54.4,51.5,48.5,86,78,70,30.22,30.11,5,1,8,0.00
2013-6-7,69.3,62.8,57.9,60.1,56.3,51.1,86,79,69,30.22,30.05,6,1,12,0.00
2013-6-8,63.1,59.6,55.9,54.8,52.2,48.3,87,77,66,30.42,30.26,7,1,11,0.00
2013-6-9,65.3,56.7,48.7,56.3,50.2,42.5,85,79,71,30.36,30.20,5,0,10,0.00
2013-6-10,65.1,56.9,49.3,56.9,51.5,45.0,88,82,71,30.18,30.05,7,1,12,0.00
2013-6-11,64.6,58.1,52.0,54.6,51.3,47.3,86,78,65,30.13,30.02,5,1,11,0.02
2013-6-12,62.1,54.9,49.8,56.9,51.3,44.5,91,87,80,30.01,29.77,5,0,13,0.39
2013-6-13,64.0,57.5,51.4,54.9,51.2,47.4,91,80,65,29.77,29.66,12,2,17,0.41
2013-6-14,62.2,57.5,54.0,50.2,48.8,46.0,82,73,63,29.72,29.62,12,4,18,0.02
2013-6-15,62.7,58.4,54.3,48.0,46.4,43.0,77,65,54,29.89,29.70,10,4,18,0.00
2013-6-16,59.5,55.6,49.8,46.8,44.0,41.6,76,65,56,29.95,29.85,8,1,12,0.00
2013-6-17,58.7,52.5,47.1,47.9,43.9,39.6,78,72,67,29.83,29.75,5,1,29,0.00
2013-6-18,59.9,53.4,46.2,48.1,43.7,39.3,78,70,56,29.97,29.82,8,2,16,0.00
2013-6-19,58.8,53.4,49.8,49.2,46.7,44.8,87,78,67,30.20,29.99,15,6,29,0.02
2013-6-20,58.3,53.9,50.9,49.4,46.5,43.3,81,76,69,30.21,30.10,8,2,14,0.02
2013-6-21,58.8,52.6,48.0,51.7,46.9,43.0,85,81,72,30.14,30.05,7,1,13,0.00
2013-6-22,57.9,51.4,43.3,49.3,45.3,38.4,87,80,71,30.28,30.14,8,2,29,0.02
2013-6-23,58.1,53.8,51.1,53.2,50.2,46.1,90,87,81,30.34,30.24,12,2,43,0.43
2013-6-24,60.5,54.9,51.5,50.8,49.1,46.4,89,81,66,30.21,29.97,17,1,29,0.43
2013-6-25,56.6,51.8,47.3,48.9,45.5,41.8,83,79,72,29.99,29.92,6,1,7,0.00
2013-6-26,63.1,56.6,46.0,57.4,51.9,41.1,93,84,76,30.11,29.96,15,5,29,0.16
2013-6-27,59.0,57.7,56.5,56.7,55.1,52.9,92,91,87,30.16,30.09,8,1,14,0.81
2013-6-28,61.0,56.5,53.5,57.4,53.7,50.6,93,90,83,30.21,30.13,7,0,14,0.37
2013-6-29,60.6,57.6,55.7,56.4,54.4,53.2,92,89,83,30.23,30.14,5,1,14,0.57
2013-6-30,57.4,55.6,54.0,54.9,52.9,51.1,92,91,90,30.24,30.17,7,2,12,0.42
2013-7-1,61.3,56.1,52.5,56.4,52.8,49.4,92,89,83,30.21,30.14,9,2,21,0.04
2013-7-2,60.6,54.5,49.3,53.5,49.4,45.6,89,83,75,30.22,30.12,6,1,14,0.04
2013-7-3,60.3,51.8,44.2,52.1,46.4,39.7,89,82,69,30.23,30.12,6,1,22,0.00
2013-7-4,67.7,57.3,48.0,53.4,48.6,42.7,88,74,58,30.10,29.88,12,3,20,0.02
2013-7-5,66.7,60.6,54.0,50.5,46.3,35.0,80,61,42,30.02,29.80,10,2,17,0.00
2013-7-6,58.6,52.8,46.0,40.1,36.2,32.9,63,53,46,30.19,30.04,9,2,16,0.00
2013-7-7,58.8,50.9,44.4,43.6,38.5,34.5,73,63,47,30.36,30.22,5,1,8,0.00
2013-7-8,59.5,48.4,38.5,45.7,38.9,32.5,82,70,50,30.46,30.36,7,1,12,0.00
2013-7-9,55.0,50.6,44.5,51.0,46.2,34.7,90,85,47,30.55,30.43,8,1,14,0.20
2013-7-10,57.4,52.3,48.7,51.9,48.4,44.6,90,86,82,30.51,30.42,5,0,7,0.20
2013-7-11,60.1,52.0,45.5,52.8,47.3,41.3,90,84,76,30.54,30.45,7,1,14,0.00
2013-7-12,59.5,51.8,43.5,53.0,47.2,39.3,90,84,78,30.46,30.31,5,1,8,0.00
2013-7-13,60.4,52.7,44.1,54.0,47.6,39.2,90,83,76,30.36,30.29,5,0,14,0.00
2013-7-14,61.5,52.0,45.3,53.3,46.9,40.8,90,83,67,30.34,30.25,5,0,14,0.00
2013-7-15,62.2,56.4,52.3,56.0,52.3,48.0,91,86,80,30.25,30.17,5,1,9,0.00
2013-7-16,66.7,60.1,54.9,56.6,53.8,51.1,89,80,67,30.26,30.18,7,1,12,0.00
2013-7-17,69.0,61.3,54.1,57.1,53.7,48.8,87,77,63,30.23,30.14,7,1,10,0.00
2013-7-18,68.4,60.1,51.8,58.4,53.7,46.8,88,80,68,30.20,30.07,7,1,12,0.00
2013-7-19,66.7,60.2,55.2,57.3,54.7,51.1,87,82,68,30.04,29.88,8,1,21,0.04
2013-7-20,66.1,60.5,57.0,55.5,50.3,39.1,86,71,44,29.87,29.69,10,3,21,0.04
2013-7-21,58.6,53.5,46.2,39.8,37.5,34.9,72,55,41,30.06,29.89,9,2,16,0.00
2013-7-22,60.2,51.5,41.5,40.2,36.1,33.4,74,57,41,30.12,30.02,10,2,20,0.00
2013-7-23,60.6,52.7,46.5,42.8,38.4,34.1,65,58,48,30.16,30.04,7,2,15,0.00
2013-7-24,60.6,56.1,52.9,47.1,43.0,38.9,67,61,58,30.34,30.17,18,6,23,0.00
2013-7-25,61.2,54.1,48.4,47.9,44.3,39.9,78,70,58,30.39,30.30,5,1,8,0.00
2013-7-26,62.2,52.1,43.9,46.2,41.6,38.0,83,68,50,30.31,30.20,7,2,15,0.00
2013-7-27,61.3,51.5,41.7,50.8,43.9,33.3,84,75,65,30.42,30.30,5,1,8,0.00
2013-7-28,62.2,53.0,44.1,52.9,47.0,39.2,89,80,67,30.40,30.28,6,1,10,0.00
2013-7-29,66.7,56.4,46.0,52.6,47.7,40.9,88,74,55,30.29,30.14,5,1,9,0.00
2013-7-30,65.8,58.1,50.4,53.4,48.5,44.0,82,71,56,30.13,30.02,9,2,12,0.00
2013-7-31,62.9,58.2,55.2,54.9,51.5,48.6,88,79,65,30.21,30.09,15,6,22,0.02
2013-8-1,62.4,55.1,48.7,51.5,47.8,43.8,85,77,63,30.18,30.09,8,2,13,0.02
2013-8-2,65.5,55.4,44.7,51.7,45.3,39.5,89,70,47,30.09,29.89,8,1,14,0.00
2013-8-3,64.0,56.7,50.4,44.9,41.6,39.4,67,57,46,30.01,29.88,8,3,17,0.00
2013-8-4,64.0,56.7,51.3,46.3,41.7,37.7,65,57,48,30.01,29.87,10,3,18,0.00
2013-8-5,63.5,55.7,48.6,44.1,40.4,37.3,68,57,45,30.07,29.94,9,3,17,0.00
2013-8-6,69.5,60.5,51.1,44.9,42.2,39.3,64,52,39,30.00,29.79,17,4,22,0.00
2013-8-7,63.0,58.3,54.1,50.5,47.7,42.8,82,68,57,29.90,29.77,8,2,14,0.12
2013-8-8,55.6,53.1,51.3,49.6,45.4,39.8,87,76,57,29.95,29.67,15,4,21,0.12
2013-8-9,62.4,55.9,48.4,46.0,42.6,39.8,73,62,50,30.06,29.91,7,2,13,0.12
2013-8-10,70.2,61.4,55.8,47.8,43.4,39.4,66,52,41,30.00,29.92,8,2,17,0.00
2013-8-11,68.7,56.5,44.9,50.4,44.4,37.7,79,65,48,30.04,29.90,8,1,14,0.00
2013-8-12,75.9,63.9,55.0,51.2,45.8,42.5,70,53,32,29.87,29.59,13,4,23,0.00
2013-8-13,67.8,58.6,50.9,39.8,37.4,31.3,64,46,32,29.99,29.85,9,3,15,0.02
2013-8-14,70.0,59.8,51.3,41.6,37.6,35.0,59,45,29,29.97,29.77,9,2,17,0.00
2013-8-15,62.0,57.2,50.7,39.8,35.7,31.4,63,45,33,30.17,29.79,16,5,21,0.00
2013-8-16,65.7,54.4,41.2,49.9,41.4,33.5,77,63,43,30.20,29.98,9,2,14,0.00
2013-8-17,70.2,60.8,51.3,54.0,49.2,40.1,80,67,42,29.92,29.73,14,4,22,0.02
2013-8-18,68.9,59.9,51.6,43.4,39.5,36.4,58,48,33,30.05,29.90,7,2,17,0.00
2013-8-19,69.8,59.4,49.8,41.6,37.9,35.2,60,46,34,29.92,29.70,13,3,22,0.02
2013-8-20,61.3,54.2,47.8,35.2,31.6,28.0,57,43,29,30.00,29.84,13,3,15,0.02
2013-8-21,62.1,52.1,44.8,40.6,35.1,29.6,65,53,39,30.01,29.90,6,2,14,0.00
2013-8-22,62.6,53.9,45.1,39.7,36.9,34.4,67,53,40,29.98,29.83,8,3,16,0.00
2013-8-23,66.7,58.8,52.7,43.6,40.6,38.4,60,51,41,29.92,29.79,12,4,21,0.00
2013-8-24,67.3,60.3,54.9,49.8,46.6,42.6,71,61,48,30.20,29.95,8,2,16,0.00
2013-8-25,72.3,59.9,48.3,51.2,45.7,40.8,83,62,36,30.25,30.11,9,2,15,0.00
2013-8-26,67.8,57.3,46.8,50.8,45.3,38.9,78,65,42,30.24,30.10,6,1,14,0.00
2013-8-27,67.5,58.0,48.9,50.6,47.2,42.7,82,68,51,30.17,30.04,8,1,13,0.00
2013-8-28,68.7,58.7,47.6,52.8,47.4,40.8,84,67,47,30.20,30.06,12,2,17,0.00
2013-8-29,69.1,59.5,49.8,56.1,50.7,43.8,89,73,56,30.23,30.06,9,2,14,0.00
2013-8-30,79.5,68.6,59.7,56.8,53.4,49.2,80,61,38,30.04,29.86,12,3,20,0.00
2013-8-31,73.2,62.7,53.2,53.3,47.4,43.4,74,59,35,30.24,30.01,10,2,20,0.00
2013-9-1,69.1,60.0,50.4,56.7,49.8,43.4,84,70,48,30.38,30.25,9,2,14,0.00
2013-9-2,69.1,59.8,50.2,55.6,50.2,44.5,88,71,57,30.45,30.34,7,1,12,0.00
2013-9-3,68.4,59.9,50.2,57.2,51.9,44.1,88,75,66,30.51,30.42,8,1,13,0.02
2013-9-4,69.8,60.4,49.1,55.9,50.5,42.7,87,71,52,30.50,30.34,10,2,14,0.00
2013-9-5,76.8,64.0,50.7,53.2,49.8,44.5,84,62,38,30.37,30.21,7,1,14,0.02
2013-9-6,75.9,68.7,63.9,61.8,54.0,47.4,80,60,51,30.31,30.19,7,2,12,0.00
2013-9-7,82.2,71.0,61.3,61.0,51.7,44.6,80,53,28,30.20,30.06,10,2,17,0.02
2013-9-8,69.4,66.8,64.9,61.2,59.5,57.9,85,78,70,30.26,30.17,12,3,21,0.02
2013-9-9,75.9,69.2,64.2,62.6,60.5,58.6,85,75,57,30.22,29.88,6,1,13,0.00
2013-9-10,84.4,74.3,65.7,60.0,50.5,46.1,79,46,27,29.83,29.57,15,4,22,0.00
2013-9-11,75.9,66.8,57.0,44.8,40.7,33.5,57,40,24,29.92,29.74,7,2,13,0.00
2013-9-12,71.8,62.6,52.2,51.3,43.8,40.3,69,51,33,30.00,29.83,9,1,16,0.00
2013-9-13,63.6,59.0,54.1,50.2,47.0,43.8,69,65,57,30.16,30.03,9,1,13,0.00
2013-9-14,75.3,64.2,58.3,57.7,55.2,49.8,86,73,49,29.95,29.74,17,4,21,0.24
2013-9-15,66.4,61.9,56.5,56.2,53.0,49.7,81,73,64,30.08,29.95,10,3,15,0.02
2013-9-16,64.0,59.3,54.5,58.9,53.9,48.0,91,83,74,30.03,29.67,7,2,14,0.44
2013-9-17,70.1,63.8,57.9,58.7,55.4,51.1,90,75,56,29.60,29.49,9,3,17,0.04
2013-9-18,75.2,66.2,59.0,55.0,50.7,43.9,78,60,35,29.63,29.54,12,4,22,0.04
2013-9-19,74.1,66.4,58.9,47.1,42.7,38.9,61,44,30,29.76,29.58,12,3,20,0.02
2013-9-20,71.5,62.7,54.5,43.8,39.6,31.9,59,44,24,29.88,29.67,17,4,32,0.00
2013-9-21,68.4,61.3,53.8,48.1,44.1,39.8,66,54,45,29.95,29.87,8,2,14,0.00
2013-9-22,72.5,61.0,49.1,54.3,48.2,41.7,80,64,40,29.98,29.85,10,2,16,0.00
2013-9-23,84.6,68.3,54.3,58.7,49.9,38.5,83,57,20,29.92,29.69,12,2,20,0.02
2013-9-24,84.9,71.5,62.8,54.5,46.2,39.4,62,42,23,29.75,29.51,7,2,15,0.00
2013-9-25,85.8,73.8,60.1,55.7,49.3,44.1,61,43,26,29.83,29.70,7,2,14,0.00
2013-9-26,89.8,74.0,59.9,53.4,44.5,27.1,68,40,15,29.96,29.59,15,3,30,0.00
2013-9-27,71.2,64.4,54.7,48.6,39.2,33.7,58,40,29,30.13,30.00,9,2,17,0.00
2013-9-28,85.1,69.4,53.2,47.7,39.4,27.4,77,41,14,29.94,29.70,13,3,22,0.08
2013-9-29,71.8,65.7,56.8,52.7,44.3,36.4,67,47,32,30.04,29.90,8,2,36,0.08
2013-9-30,84.4,68.2,52.4,50.6,45.9,36.9,80,50,19,30.03,29.84,8,2,15,0.00
2013-10-1,86.9,67.3,58.8,61.9,49.5,45.2,64,54,34,29.86,29.59,15,2,23,0.06
2013-10-4,77.5,63.9,58.1,58.5,51.9,49.5,73,65,52,30.12,30.07,7,1,10,0.06
2013-10-5,81.5,65.2,48.9,54.9,45.7,38.8,84,54,26,30.10,29.82,7,2,15,0.06
2013-10-6,89.2,74.0,59.1,51.4,42.1,34.5,68,36,15,29.87,29.61,8,2,16,0.00
2013-10-7,71.9,66.9,63.9,56.5,50.7,43.9,71,56,40,29.93,29.65,16,6,23,0.00
2013-10-8,69.3,63.4,56.5,54.3,51.8,48.8,77,66,53,30.10,29.88,14,3,18,0.02
2013-10-9,83.1,66.7,51.3,53.1,46.0,40.0,81,53,22,30.12,29.89,7,2,18,0.02
2013-10-10,93.2,79.4,66.7,44.7,41.7,38.9,41,28,16,29.93,29.61,13,4,21,0.00
2013-10-11,81.2,69.6,65.5,59.5,55.5,42.4,77,62,26,29.99,29.60,17,5,34,0.00
2013-10-12,84.9,69.3,55.4,63.8,55.7,47.6,82,64,31,30.00,29.73,8,2,19,0.00
2013-10-13,94.6,80.2,66.2,60.3,51.1,33.5,77,44,12,29.73,29.41,16,5,35,0.02
2013-10-14,68.5,63.7,60.1,60.5,47.2,42.7,78,56,45,30.11,29.67,14,4,23,0.69
2013-10-15,75.1,61.6,48.7,47.4,40.5,35.9,71,49,25,30.21,30.05,8,2,17,0.00
2013-10-16,83.8,67.2,50.2,49.6,41.7,32.1,71,44,16,30.11,29.88,10,3,18,0.00
2013-10-17,92.3,76.8,61.5,54.0,42.3,24.3,49,32,10,29.97,29.62,16,5,25,0.00
2013-10-18,72.1,64.7,60.1,48.1,40.2,28.0,62,42,24,30.34,30.03,17,5,22,0.00
2013-10-19,72.1,62.3,50.2,57.0,48.5,41.5,76,62,44,30.34,30.21,13,2,18,0.00
2013-10-20,82.9,70.1,57.0,62.2,56.5,49.5,84,64,36,30.22,29.96,12,2,18,0.00
2013-10-21,94.6,77.5,61.9,60.5,55.5,46.1,81,52,21,30.01,29.85,8,2,16,0.02
2013-10-22,84.0,75.6,69.3,66.0,62.5,55.1,77,64,51,29.98,29.82,12,4,18,0.00
2013-10-23,94.6,81.1,69.4,64.4,56.1,37.8,80,49,16,29.81,29.57,14,4,24,0.00
2013-10-24,80.9,71.5,62.8,56.2,43.6,29.4,65,40,16,30.12,29.82,15,4,23,0.00
2013-10-25,71.8,63.3,52.7,51.8,41.1,33.2,63,45,27,30.21,30.06,12,2,18,0.00
2013-10-26,72.4,63.8,54.1,53.9,46.7,38.1,70,55,31,30.18,30.06,12,3,20,0.00
2013-10-27,73.0,65.9,57.0,55.6,52.7,47.4,78,63,41,30.20,30.08,9,3,17,0.00
2013-10-28,77.2,68.2,59.5,58.8,55.6,51.6,80,65,46,30.15,29.86,9,2,14,0.02
2013-10-29,84.2,66.1,59.9,60.4,56.1,51.8,87,72,40,29.98,29.64,100,14,100,2.58
2013-10-30,70.0,63.2,58.1,55.0,52.9,50.9,85,70,52,30.11,29.96,13,4,28,2.58
2013-10-31,72.5,63.5,52.7,55.8,51.9,46.4,82,67,53,30.18,30.05,10,2,16,0.00
2013-11-1,72.7,67.9,63.3,58.9,57.2,54.4,78,69,60,30.21,30.08,10,2,17,0.00
2013-11-2,91.0,73.4,58.1,61.9,55.8,48.8,83,58,24,30.11,29.83,10,2,20,0.00
2013-11-3,93.0,75.8,64.8,61.2,51.4,40.0,74,48,16,30.08,29.70,18,5,29,0.02
2013-11-4,66.0,63.4,61.3,49.0,44.2,39.7,57,50,40,30.32,30.06,20,9,31,0.00
2013-11-5,69.3,63.2,58.8,52.6,48.2,41.9,71,58,51,30.34,30.26,13,5,21,0.00
2013-11-6,72.4,63.4,51.6,55.8,50.5,44.0,79,64,51,30.27,30.05,12,2,18,0.02
2013-11-7,84.7,70.3,55.2,61.5,55.3,47.3,80,61,41,30.06,29.85,10,2,17,0.02
2013-11-8,93.7,79.8,64.0,61.1,55.1,49.4,73,46,23,29.89,29.66,12,3,22,0.00
2013-11-9,95.8,78.1,67.8,62.9,59.2,53.2,72,54,24,29.93,29.61,16,6,23,0.00
2013-11-10,71.3,66.4,61.9,59.0,55.8,53.3,86,69,57,30.04,29.93,14,7,21,0.47
2013-11-11,69.6,64.6,61.5,62.7,60.4,57.3,91,86,74,30.04,29.91,14,5,29,0.12
2013-11-12,73.8,66.1,61.9,63.4,60.7,58.0,89,83,69,29.93,29.82,9,1,13,0.22
2013-11-13,85.6,70.9,59.5,62.4,55.2,42.1,88,62,23,29.95,29.81,12,2,18,0.22
2013-11-14,84.0,70.9,61.0,57.0,53.0,43.9,75,55,25,29.95,29.82,13,3,20,0.00
2013-11-15,75.7,69.4,62.8,61.6,57.9,55.0,79,68,51,29.98,29.90,10,4,16,0.14
2013-11-16,70.9,65.8,60.4,62.3,56.6,53.6,84,73,59,29.96,29.90,12,5,20,0.02
2013-11-17,62.2,59.9,58.6,57.2,56.1,55.4,91,87,82,29.95,29.89,13,5,17,2.18
2013-11-18,68.2,62.7,59.4,64.9,58.7,56.7,93,87,75,29.89,29.71,18,7,28,0.77
2013-11-19,74.8,67.2,59.7,63.0,60.2,55.5,89,79,65,29.84,29.78,18,4,26,0.77
2013-11-20,77.7,69.6,60.4,64.7,61.0,55.6,87,75,60,29.88,29.80,9,2,16,0.00
2013-11-21,79.5,71.5,62.2,65.9,62.4,57.1,88,74,62,29.89,29.76,10,3,20,0.02
2013-11-22,73.4,69.2,66.7,66.3,63.4,61.2,88,82,74,29.86,29.67,14,3,22,0.47
2013-11-23,70.3,66.6,63.7,64.7,62.2,58.8,90,86,77,29.72,29.58,8,1,16,0.41
2013-11-24,75.0,67.3,58.5,60.4,57.7,53.7,87,72,54,29.76,29.59,10,3,14,0.41
2013-11-25,72.7,65.6,60.6,62.6,57.6,50.5,84,76,62,29.92,29.70,15,4,26,0.47
2013-11-26,72.5,65.0,58.6,55.2,52.0,49.2,77,63,50,30.04,29.89,14,5,21,0.49
2013-11-27,75.7,66.4,56.1,57.3,54.1,49.5,81,66,50,30.05,29.92,10,2,14,0.00
2013-11-28,92.5,74.3,58.3,64.8,56.6,49.2,83,58,24,29.97,29.60,8,2,15,0.00
2013-11-29,79.9,68.9,62.4,65.3,60.8,52.6,86,76,39,29.92,29.50,14,4,20,0.69
2013-11-30,69.6,64.0,59.1,59.7,55.5,53.2,87,74,58,30.20,29.91,14,4,21,0.10
2013-12-1,72.5,65.4,57.7,58.0,55.4,52.1,84,71,57,30.25,30.17,9,2,17,0.02
2013-12-2,75.7,68.1,59.4,56.9,55.5,53.0,81,65,52,30.23,30.06,8,2,14,0.04
2013-12-3,77.5,68.7,57.6,60.9,56.5,50.0,82,66,47,30.07,29.85,9,2,17,0.00
2013-12-4,91.6,75.7,59.9,66.2,57.6,51.8,82,57,27,29.85,29.44,9,2,15,0.00
2013-12-5,81.7,73.4,61.0,68.9,54.6,36.9,81,54,29,29.75,29.37,14,4,32,0.04
2013-12-6,73.0,64.7,55.6,49.8,43.5,38.1,62,47,32,30.06,29.74,12,4,19,0.00
2013-12-7,76.8,66.6,55.4,55.2,51.8,46.9,75,60,44,30.12,30.04,9,2,14,0.00
2013-12-8,85.1,71.8,58.6,61.3,55.8,50.4,81,59,43,30.09,29.85,10,2,16,0.02
2013-12-9,96.6,79.8,64.6,64.4,57.7,47.5,74,50,19,29.87,29.58,12,2,17,0.02
2013-12-10,94.3,84.2,76.8,64.5,59.9,54.2,64,45,27,29.74,29.55,13,4,21,0.00
2013-12-11,82.2,76.3,71.5,65.9,63.5,61.1,78,65,52,29.80,29.63,10,3,16,0.00
2013-12-12,79.7,73.9,67.9,64.7,62.4,59.6,81,68,54,29.85,29.77,10,3,20,0.00
2013-12-13,83.8,74.8,64.6,68.1,63.2,57.2,81,68,49,29.88,29.77,13,2,17,0.00
2013-12-14,79.3,73.2,69.4,66.0,63.4,59.5,84,72,60,30.05,29.79,16,6,24,0.02
2013-12-15,77.5,71.4,64.9,62.7,61.0,58.1,81,70,56,30.09,29.98,10,3,17,0.02
2013-12-16,78.1,72.5,65.5,63.7,61.3,58.8,82,68,58,30.15,30.04,12,4,18,0.02
2013-12-17,80.2,72.4,63.0,63.1,60.0,55.7,81,66,49,30.16,30.07,12,3,20,0.02
2013-12-18,79.9,73.0,64.7,62.4,59.6,57.6,81,64,50,30.23,30.11,10,3,16,0.02
2013-12-19,82.9,74.0,63.1,65.8,60.9,55.1,79,64,52,30.19,30.03,10,2,20,0.02
2013-12-20,103.1,83.6,66.7,67.7,61.2,56.5,78,51,23,30.03,29.83,7,2,15,0.02
2013-12-21,82.6,77.9,73.8,67.7,66.1,13.9,80,68,9,30.01,29.82,18,7,27,0.00
2013-12-22,97.6,83.1,72.3,73.0,67.8,63.9,84,63,36,29.99,29.74,10,2,18,0.00
2013-12-23,94.6,84.6,75.0,68.3,62.0,56.6,73,49,31,29.85,29.66,16,4,23,0.00
2013-12-24,74.8,70.1,67.3,67.0,63.1,60.5,86,79,71,30.11,29.87,15,4,21,0.18
2013-12-25,71.4,69.4,67.8,66.7,64.6,61.6,89,85,77,30.09,29.90,6,1,12,0.42
2013-12-26,78.6,72.4,68.2,66.2,64.6,61.9,91,77,61,29.90,29.78,13,4,19,0.55
2013-12-27,79.0,73.0,67.1,64.8,62.8,61.1,82,71,59,29.91,29.81,10,3,17,0.00
2013-12-28,81.5,74.2,67.2,68.1,64.3,60.2,82,72,62,29.90,29.67,10,2,15,0.00
2013-12-29,74.8,71.7,69.3,66.5,61.0,55.2,82,69,55,29.99,29.56,18,8,32,0.00
2013-12-30,76.8,70.6,64.7,57.9,56.5,54.6,75,62,48,29.99,29.84,10,3,17,0.02
2013-12-31,82.0,72.5,61.5,66.2,60.4,53.5,79,66,52,30.00,29.81,10,3,19,0.04
2014-1-1,85.6,76.4,67.6,66.9,64.6,61.6,84,68,52,30.00,29.78,12,2,18,0.02
2014-1-2,97.0,82.9,73.9,69.5,62.6,52.3,76,55,23,29.73,29.57,13,3,21,0.02